Time;durP1;ratioP1;P1;durP2;ratioP2;P2;SDS_P1;SDS_P2;PMS_P1;PMS_P2;Temp;Humidity;BMP_temperature;BMP_pressure;BME280_temperature;BME280_humidity;BME280_pressure;Samples;Min_cycle;Max_cycle;Signal;HPM_P1;HPM_P2
2022/09/12 00:00:45;;;;;;;13.80;8.77;;;16.20;1.00;;;;;;4994747;28;20462;-65
2022/09/12 00:03:11;;;;;;;13.47;9.80;;;16.10;1.00;;;;;;4995568;28;20168;-63
2022/09/12 00:05:41;;;;;;;12.70;9.33;;;16.00;1.00;;;;;;4992356;28;20192;-62
2022/09/12 00:08:07;;;;;;;9.90;8.90;;;16.00;1.00;;;;;;4993149;28;20642;-64
2022/09/12 00:10:37;;;;;;;9.90;8.90;;;16.00;1.00;;;;;;4995680;28;20540;-64
2022/09/12 00:13:03;;;;;;;10.63;8.40;;;15.70;99.90;;;;;;4993634;28;20224;-65
2022/09/12 00:15:29;;;;;;;10.20;9.30;;;15.70;99.90;;;;;;4991738;28;20503;-65
2022/09/12 00:17:55;;;;;;;10.40;9.40;;;15.60;1.00;;;;;;4992364;28;20177;-64
2022/09/12 00:20:20;;;;;;;9.53;8.53;;;15.30;99.90;;;;;;4984655;28;20579;-64
2022/09/12 00:22:46;;;;;;;14.00;8.87;;;15.60;99.90;;;;;;4993600;28;20919;-64
2022/09/12 00:25:12;;;;;;;10.20;9.20;;;15.70;1.00;;;;;;4992990;28;20212;-64
2022/09/12 00:27:38;;;;;;;13.70;8.57;;;15.70;1.00;;;;;;4992983;28;20181;-66
2022/09/12 00:30:04;;;;;;;15.60;10.17;;;15.60;1.00;;;;;;4992209;28;20296;-65
2022/09/12 00:32:30;;;;;;;11.73;9.50;;;15.60;1.00;;;;;;4993114;28;20213;-65
2022/09/12 00:34:55;;;;;;;13.47;9.00;;;15.60;1.00;;;;;;4992236;28;20470;-63
2022/09/12 00:37:21;;;;;;;11.23;9.60;;;15.60;1.00;;;;;;4991890;28;20186;-66
2022/09/12 00:39:47;;;;;;;16.13;9.53;;;15.50;1.00;;;;;;4993410;28;20169;-66
2022/09/12 00:42:12;;;;;;;10.60;9.20;;;15.40;1.00;;;;;;4992201;28;20224;-66
2022/09/12 00:44:41;;;;;;;10.30;8.70;;;15.40;1.00;;;;;;4992789;28;20617;-66
2022/09/12 00:47:31;;;;;;;14.37;8.90;;;15.30;1.00;;;;;;4995521;28;20185;-65
2022/09/12 00:50:02;;;;;;;10.77;9.70;;;15.20;99.90;;;;;;4974001;28;20777;-66
2022/09/12 00:52:45;;;;;;;19.37;10.37;;;15.30;40.50;;;;;;4992829;28;20448;-65
2022/09/12 00:55:15;;;;;;;16.30;9.80;;;15.40;1.00;;;;;;4992548;28;20552;-64
2022/09/12 00:57:49;;;;;;;12.93;9.37;;;15.40;1.00;;;;;;4991841;28;20928;-64
2022/09/12 01:00:18;;;;;;;10.30;9.33;;;15.40;1.00;;;;;;4992419;28;20411;-63
2022/09/12 01:02:49;;;;;;;10.73;9.47;;;15.40;1.00;;;;;;4991822;28;20474;-65
2022/09/12 01:05:16;;;;;;;9.83;8.70;;;15.30;1.00;;;;;;4993258;28;20416;-65
2022/09/12 01:07:43;;;;;;;11.20;10.13;;;15.20;1.00;;;;;;4985056;28;20436;-64
2022/09/12 01:10:10;;;;;;;11.97;9.90;;;15.20;99.90;;;;;;4990163;28;20467;-65
2022/09/12 01:12:39;;;;;;;11.70;10.47;;;15.20;99.90;;;;;;4989083;28;20501;-64
2022/09/12 01:15:06;;;;;;;13.07;9.50;;;15.20;99.90;;;;;;4992062;28;20518;-64
2022/09/12 01:18:03;;;;;;;19.27;10.03;;;15.30;99.90;;;;;;4991779;28;20490;-64
2022/09/12 01:20:35;;;;;;;14.30;9.40;;;15.20;99.90;;;;;;4987849;28;20864;-64
2022/09/12 01:23:50;;;;;;;11.17;10.00;;;15.10;99.90;;;;;;4992644;28;20921;-65
2022/09/12 01:26:31;;;;;;;11.30;10.20;;;15.10;99.90;;;;;;4990586;28;20428;-65
2022/09/12 01:29:27;;;;;;;13.93;11.17;;;15.10;99.90;;;;;;4991623;28;20427;-65
2022/09/12 01:32:01;;;;;;;10.70;9.60;;;15.00;99.90;;;;;;4986115;28;20973;-64
2022/09/12 01:34:41;;;;;;;9.57;8.67;;;15.00;99.90;;;;;;4994737;28;20478;-64
2022/09/12 01:37:10;;;;;;;9.93;8.93;;;15.00;99.90;;;;;;4992368;28;20523;-66
2022/09/12 01:39:56;;;;;;;13.43;10.73;;;15.00;96.50;;;;;;4984594;28;20433;-65
2022/09/12 01:42:28;;;;;;;16.20;9.40;;;14.90;99.90;;;;;;4989774;28;20463;-66
2022/09/12 01:45:15;;;;;;;15.10;9.30;;;14.90;99.90;;;;;;4995573;28;20464;-66
2022/09/12 01:47:46;;;;;;;14.17;9.83;;;14.90;99.90;;;;;;4991606;28;20404;-66
2022/09/12 01:50:26;;;;;;;12.43;9.90;;;14.90;99.90;;;;;;4990573;28;20551;-65
2022/09/12 01:53:18;;;;;;;10.50;9.20;;;14.90;1.00;;;;;;4986736;28;20443;-65
2022/09/12 01:55:53;;;;;;;18.27;9.50;;;15.00;1.00;;;;;;4991193;28;20467;-65
2022/09/12 01:58:31;;;;;;;13.70;10.17;;;15.00;1.00;;;;;;4991891;28;20483;-65
2022/09/12 02:01:08;;;;;;;12.70;11.00;;;15.00;1.00;;;;;;4990686;28;20470;-65
2022/09/12 02:03:47;;;;;;;11.50;10.23;;;15.00;1.00;;;;;;4991791;28;20779;-66
2022/09/12 02:06:46;;;;;;;9.93;8.50;;;14.90;1.00;;;;;;4992901;28;20431;-65
2022/09/12 02:09:21;;;;;;;11.23;10.07;;;14.90;1.00;;;;;;4988293;28;20459;-65
2022/09/12 02:11:51;;;;;;;11.97;10.30;;;14.80;1.00;;;;;;4990550;28;20478;-65
2022/09/12 02:14:25;;;;;;;11.57;8.53;;;14.80;1.00;;;;;;4992144;28;20436;-65
2022/09/12 02:17:00;;;;;;;10.30;9.20;;;14.90;99.90;;;;;;4990394;28;20459;-65
2022/09/12 02:19:34;;;;;;;11.27;8.97;;;14.80;99.90;;;;;;4990358;28;20771;-65
2022/09/12 02:22:03;;;;;;;10.80;9.70;;;14.80;99.90;;;;;;4991491;28;20451;-64
2022/09/12 02:24:38;;;;;;;13.73;8.73;;;14.80;99.90;;;;;;4991454;28;20467;-64
2022/09/12 02:27:08;;;;;;;12.97;10.20;;;14.80;99.90;;;;;;4990513;28;20555;-65
2022/09/12 02:29:34;;;;;;;12.70;9.03;;;14.70;99.90;;;;;;4979213;28;20528;-63
2022/09/12 02:32:07;;;;;;;12.53;9.67;;;14.60;99.90;;;;;;4990500;28;20448;-64
2022/09/12 02:34:38;;;;;;;10.57;9.47;;;14.60;99.90;;;;;;4992224;28;20260;-64
2022/09/12 02:37:10;;;;;;;12.57;9.60;;;14.60;99.90;;;;;;4991634;28;20419;-65
2022/09/12 02:39:35;;;;;;;11.10;9.63;;;14.60;99.90;;;;;;4983773;28;20414;-65
2022/09/12 02:42:02;;;;;;;9.93;8.93;;;14.60;99.90;;;;;;5001729;23;20487;-65
2022/09/12 02:44:32;;;;;;;14.80;9.23;;;14.60;96.30;;;;;;4970982;28;20177;-65
2022/09/12 02:47:07;;;;;;;12.40;8.30;;;14.70;31.60;;;;;;4976347;28;20421;-65
2022/09/12 02:49:33;;;;;;;12.13;9.93;;;14.70;1.00;;;;;;4971079;28;20421;-65
2022/09/12 02:52:00;;;;;;;10.83;9.70;;;14.40;99.90;;;;;;4970856;28;20444;-66
2022/09/12 02:54:26;;;;;;;10.80;8.80;;;14.30;1.00;;;;;;4970419;28;20638;-66
2022/09/12 02:56:51;;;;;;;10.10;9.10;;;14.40;1.00;;;;;;4965889;28;20526;-65
2022/09/12 02:59:19;;;;;;;9.33;8.33;;;14.20;1.00;;;;;;4971711;28;20965;-65
2022/09/12 03:01:51;;;;;;;10.90;9.63;;;13.90;1.00;;;;;;4969892;28;20697;-65
2022/09/12 03:04:44;;;;;;;10.80;9.67;;;13.90;1.00;;;;;;4968771;28;20425;-66
2022/09/12 03:07:36;;;;;;;10.60;9.10;;;14.10;1.00;;;;;;4968464;28;20786;-65
2022/09/12 03:10:14;;;;;;;11.43;10.07;;;14.10;99.90;;;;;;4966750;28;20433;-65
2022/09/12 03:13:21;;;;;;;10.23;9.20;;;14.20;99.90;;;;;;4967219;28;20795;-65
2022/09/12 03:15:53;;;;;;;12.20;9.67;;;14.10;99.90;;;;;;4942948;28;20472;-65
2022/09/12 03:18:42;;;;;;;9.40;8.50;;;14.00;99.90;;;;;;4968297;28;20420;-65
2022/09/12 03:21:13;;;;;;;10.63;9.40;;;13.90;99.90;;;;;;4971009;28;20540;-65
2022/09/12 03:24:06;;;;;;;12.17;10.73;;;13.90;1.00;;;;;;4963518;28;20459;-65
2022/09/12 03:26:54;;;;;;;12.73;10.43;;;14.10;99.90;;;;;;4969887;28;20440;-65
2022/09/12 03:29:20;;;;;;;20.40;11.70;;;14.10;95.10;;;;;;4970568;28;20436;-65
2022/09/12 03:31:54;;;;;;;20.53;11.60;;;14.20;1.00;;;;;;4968892;28;20811;-65
2022/09/12 03:34:22;;;;;;;13.17;11.77;;;14.30;99.90;;;;;;4966638;28;20429;-65
2022/09/12 03:36:48;;;;;;;11.97;10.83;;;14.30;99.90;;;;;;4969631;28;20963;-65
2022/09/12 03:39:14;;;;;;;13.17;10.23;;;14.30;1.00;;;;;;4971422;28;20756;-65
2022/09/12 03:41:40;;;;;;;11.63;10.33;;;14.40;1.00;;;;;;4969952;28;20469;-65
2022/09/12 03:44:06;;;;;;;17.10;10.40;;;14.40;99.90;;;;;;4970139;28;20592;-64
2022/09/12 03:46:32;;;;;;;12.20;10.00;;;14.20;99.90;;;;;;4970632;28;20177;-65
2022/09/12 03:48:57;;;;;;;12.23;10.00;;;14.20;1.00;;;;;;4970168;28;20744;-65
2022/09/12 03:51:23;;;;;;;11.50;10.27;;;14.10;1.00;;;;;;4965660;28;20201;-65
2022/09/12 03:53:48;;;;;;;10.73;9.67;;;14.00;99.90;;;;;;4974142;28;20216;-65
2022/09/12 03:56:14;;;;;;;17.00;10.80;;;13.90;99.90;;;;;;4973998;28;20551;-65
2022/09/12 03:58:40;;;;;;;11.50;10.30;;;14.00;1.00;;;;;;4972839;28;20232;-65
2022/09/12 04:01:11;;;;;;;13.10;11.07;;;13.90;1.00;;;;;;4974207;28;20209;-65
2022/09/12 04:03:45;;;;;;;24.13;10.50;;;13.90;1.00;;;;;;4971299;28;20200;-65
2022/09/12 04:06:14;;;;;;;418.67;38.90;;;13.80;1.00;;;;;;4968035;28;20439;-65
2022/09/12 04:08:40;;;;;;;23.00;10.67;;;13.70;99.90;;;;;;4974680;28;20408;-65
2022/09/12 04:11:12;;;;;;;12.20;9.30;;;13.70;99.90;;;;;;4972630;28;20487;-65
2022/09/12 04:13:39;;;;;;;18.40;9.80;;;13.60;99.90;;;;;;4972659;28;20491;-65
2022/09/12 04:16:06;;;;;;;19.93;9.13;;;13.70;99.90;;;;;;4973702;28;20460;-65
2022/09/12 04:18:32;;;;;;;14.33;9.93;;;13.80;99.90;;;;;;4967713;28;20443;-65
2022/09/12 04:21:02;;;;;;;13.83;8.80;;;13.80;1.00;;;;;;4970381;28;20429;-65
2022/09/12 04:23:27;;;;;;;8.67;7.87;;;13.70;1.00;;;;;;4973270;28;20409;-65
2022/09/12 04:25:54;;;;;;;14.10;7.37;;;13.60;1.00;;;;;;4973964;28;20996;-64
2022/09/12 04:28:20;;;;;;;29.83;9.00;;;13.50;99.90;;;;;;4972819;28;20177;-65
2022/09/12 04:30:46;;;;;;;35.97;8.40;;;13.50;99.90;;;;;;4974024;28;21024;-65
2022/09/12 04:33:12;;;;;;;17.47;6.73;;;13.50;1.00;;;;;;4973706;28;20441;-65
2022/09/12 04:35:37;;;;;;;14.73;6.20;;;13.50;99.90;;;;;;4971728;28;20208;-66
2022/09/12 04:38:03;;;;;;;13.83;7.50;;;13.40;1.00;;;;;;4974266;28;20173;-65
2022/09/12 04:40:30;;;;;;;6.77;5.90;;;13.40;1.00;;;;;;4973182;28;20186;-65
2022/09/12 04:42:56;;;;;;;9.67;6.27;;;13.30;1.00;;;;;;4972851;28;20205;-65
2022/09/12 04:45:22;;;;;;;18.00;7.00;;;13.00;1.00;;;;;;4971958;28;20499;-65
2022/09/12 04:47:48;;;;;;;8.20;6.40;;;12.80;99.90;;;;;;4973242;28;20417;-65
2022/09/12 04:50:13;;;;;;;7.33;6.63;;;12.70;99.90;;;;;;4971575;28;20751;-65
2022/09/12 04:52:40;;;;;;;16.60;7.00;;;12.70;99.90;;;;;;4971509;28;20457;-65
2022/09/12 04:55:07;;;;;;;7.30;6.60;;;12.90;99.90;;;;;;4969852;28;20251;-65
2022/09/12 04:57:33;;;;;;;7.73;6.60;;;13.10;1.00;;;;;;4972965;28;20434;-65
2022/09/12 04:59:58;;;;;;;9.10;6.90;;;13.20;1.00;;;;;;4973111;28;20500;-65
2022/09/12 05:02:24;;;;;;;13.30;6.90;;;13.30;1.00;;;;;;4970769;28;20293;-66
2022/09/12 05:04:51;;;;;;;6.43;5.83;;;13.40;1.00;;;;;;4970393;28;20248;-66
2022/09/12 05:07:18;;;;;;;23.20;7.60;;;13.40;1.00;;;;;;4968595;28;20174;-65
2022/09/12 05:09:44;;;;;;;12.93;8.00;;;13.40;1.00;;;;;;4967531;28;20409;-66
2022/09/12 05:12:10;;;;;;;12.97;8.27;;;13.50;1.00;;;;;;4971174;28;20747;-65
2022/09/12 05:14:36;;;;;;;9.07;7.77;;;13.20;99.90;;;;;;4970333;28;20428;-67
2022/09/12 05:17:04;;;;;;;9.20;7.77;;;13.30;99.90;;;;;;4969281;28;20460;-67
2022/09/12 05:19:31;;;;;;;33.10;9.20;;;13.30;99.90;;;;;;4970532;28;20174;-66
2022/09/12 05:21:57;;;;;;;21.00;8.53;;;13.40;99.90;;;;;;4970014;28;20524;-67
2022/09/12 05:24:24;;;;;;;16.40;9.33;;;13.40;99.90;;;;;;4970490;28;20943;-67
2022/09/12 05:26:49;;;;;;;22.80;9.50;;;13.10;99.90;;;;;;4970940;28;20414;-67
2022/09/12 05:29:15;;;;;;;33.27;11.97;;;13.10;1.00;;;;;;4970908;28;20968;-67
2022/09/12 05:31:41;;;;;;;31.00;11.87;;;13.20;1.00;;;;;;4968335;28;20205;-67
2022/09/12 05:34:08;;;;;;;22.27;12.20;;;13.30;1.00;;;;;;4968313;28;20200;-67
2022/09/12 05:36:35;;;;;;;20.60;12.13;;;13.20;1.00;;;;;;4970976;28;20670;-67
2022/09/12 05:39:03;;;;;;;31.07;14.97;;;13.20;1.00;;;;;;4970817;28;20488;-67
2022/09/12 05:41:31;;;;;;;23.67;12.37;;;13.20;1.00;;;;;;4970926;28;20505;-67
2022/09/12 05:44:00;;;;;;;18.90;11.97;;;13.30;1.00;;;;;;4970971;28;20762;-67
2022/09/12 05:46:28;;;;;;;33.47;14.27;;;13.10;1.00;;;;;;4969656;28;20417;-67
2022/09/12 05:48:55;;;;;;;14.60;12.00;;;13.30;1.00;;;;;;4970542;28;20413;-67
2022/09/12 05:51:24;;;;;;;39.73;14.27;;;13.30;1.00;;;;;;4970129;28;20543;-67
2022/09/12 05:53:52;;;;;;;21.03;12.30;;;13.40;1.00;;;;;;4970635;28;20413;-67
2022/09/12 05:56:22;;;;;;;24.73;12.43;;;13.40;1.00;;;;;;4971373;28;20449;-68
2022/09/12 05:59:11;;;;;;;25.30;14.50;;;13.20;1.00;;;;;;4966979;28;20437;-67
2022/09/12 06:01:37;;;;;;;50.77;13.10;;;13.30;1.00;;;;;;4962632;28;20453;-67
2022/09/12 06:04:05;;;;;;;15.50;12.40;;;13.30;1.00;;;;;;4970096;28;20424;-67
2022/09/12 06:06:33;;;;;;;15.73;11.93;;;13.50;1.00;;;;;;4970739;28;20189;-68
2022/09/12 06:09:00;;;;;;;55.53;16.30;;;13.50;1.00;;;;;;4969632;28;20789;-67
2022/09/12 06:11:30;;;;;;;17.70;12.10;;;13.70;1.00;;;;;;4970023;28;20942;-67
2022/09/12 06:13:57;;;;;;;46.80;13.50;;;13.70;1.00;;;;;;4969575;28;20902;-67
2022/09/12 06:16:25;;;;;;;61.13;15.50;;;13.80;1.00;;;;;;4969185;28;20457;-66
2022/09/12 06:18:53;;;;;;;30.97;11.80;;;13.90;1.00;;;;;;4968809;28;20488;-67
2022/09/12 06:21:20;;;;;;;25.10;14.27;;;13.90;1.00;;;;;;4969987;28;20520;-66
2022/09/12 06:23:46;;;;;;;94.07;38.37;;;13.90;1.00;;;;;;4968546;28;20433;-66
2022/09/12 06:26:15;;;;;;;167.73;88.73;;;13.70;1.00;;;;;;4970990;28;20433;-66
2022/09/12 06:28:43;;;;;;;171.37;129.23;;;13.50;1.00;;;;;;4973278;28;20456;-66
2022/09/12 06:31:30;;;;;;;92.27;53.80;;;13.40;1.00;;;;;;4974016;28;21363;-66
2022/09/12 06:33:59;;;;;;;121.77;89.03;;;13.40;1.00;;;;;;4973743;28;20409;-66
2022/09/12 06:36:28;;;;;;;82.17;34.17;;;13.50;1.00;;;;;;4973321;28;20822;-68
2022/09/12 06:39:02;;;;;;;134.47;83.93;;;13.30;1.00;;;;;;4972797;28;20773;-66
2022/09/12 06:41:30;;;;;;;63.80;35.10;;;13.60;1.00;;;;;;4972238;28;20498;-68
2022/09/12 06:43:56;;;;;;;113.73;51.50;;;13.60;1.00;;;;;;4972213;28;20488;-68
2022/09/12 06:46:22;;;;;;;118.60;56.60;;;13.50;1.00;;;;;;4972273;28;20424;-67
2022/09/12 06:48:48;;;;;;;116.43;47.17;;;13.80;1.00;;;;;;4972132;28;20745;-67
2022/09/12 06:51:16;;;;;;;48.77;27.70;;;13.90;1.00;;;;;;4972049;28;20260;-67
2022/09/12 06:53:43;;;;;;;70.90;32.60;;;14.10;1.00;;;;;;4972031;28;20186;-66
2022/09/12 06:56:16;;;;;;;54.70;32.90;;;14.10;1.00;;;;;;4971972;28;21068;-67
2022/09/12 06:58:42;;;;;;;46.77;30.90;;;14.20;1.00;;;;;;4971860;28;20897;-67
2022/09/12 07:01:09;;;;;;;57.30;30.70;;;14.20;1.00;;;;;;4972177;28;20821;-66
2022/09/12 07:03:36;;;;;;;45.57;24.70;;;14.30;1.00;;;;;;4972054;28;20409;-69
2022/09/12 07:06:10;;;;;;;46.90;23.27;;;14.10;1.00;;;;;;4972287;28;20416;-66
2022/09/12 07:08:36;;;;;;;43.27;23.90;;;14.10;1.00;;;;;;4971670;28;20409;-66
2022/09/12 07:11:18;;;;;;;39.30;23.37;;;13.90;1.00;;;;;;4971686;28;20447;-66
2022/09/12 07:13:46;;;;;;;47.37;26.17;;;13.70;1.00;;;;;;4972010;28;20460;-67
2022/09/12 07:16:13;;;;;;;51.53;28.60;;;13.70;1.00;;;;;;4971664;28;20460;-68
2022/09/12 07:18:39;;;;;;;47.70;26.30;;;14.00;1.00;;;;;;4971483;28;20444;-68
2022/09/12 07:21:09;;;;;;;75.10;30.27;;;13.90;1.00;;;;;;4971966;28;20747;-67
2022/09/12 07:23:34;;;;;;;53.80;27.37;;;13.80;1.00;;;;;;4972195;28;20459;-67
2022/09/12 07:26:01;;;;;;;56.97;33.53;;;13.80;1.00;;;;;;4973819;28;20897;-67
2022/09/12 07:28:29;;;;;;;74.53;46.43;;;13.90;1.00;;;;;;4977833;28;20232;-66
2022/09/12 07:30:55;;;;;;;61.93;37.33;;;13.90;1.00;;;;;;4976256;28;20405;-66
2022/09/12 07:33:27;;;;;;;75.33;46.87;;;14.00;1.00;;;;;;4976395;28;20508;-69
2022/09/12 07:35:53;;;;;;;77.80;46.17;;;14.00;1.00;;;;;;4975952;28;20445;-66
2022/09/12 07:38:22;;;;;;;80.07;44.93;;;14.20;1.00;;;;;;4975929;28;20747;-67
2022/09/12 07:40:48;;;;;;;54.27;31.80;;;14.40;1.00;;;;;;4975578;28;20415;-67
2022/09/12 07:43:14;;;;;;;77.27;51.17;;;14.40;1.00;;;;;;4976007;28;20408;-68
2022/09/12 07:45:41;;;;;;;77.17;55.03;;;14.60;1.00;;;;;;4975332;28;20197;-68
2022/09/12 07:48:07;;;;;;;76.57;52.27;;;14.70;1.00;;;;;;4975076;28;20170;-67
2022/09/12 07:50:35;;;;;;;80.43;50.17;;;14.80;1.00;;;;;;4975001;28;20411;-68
2022/09/12 07:53:02;;;;;;;74.97;43.73;;;14.90;99.90;;;;;;4974938;28;20447;-68
2022/09/12 07:55:28;;;;;;;81.23;51.83;;;14.80;99.90;;;;;;4975004;28;20464;-68
2022/09/12 07:57:54;;;;;;;61.87;36.67;;;14.60;1.00;;;;;;4974874;28;20432;-68
2022/09/12 08:00:20;;;;;;;58.30;37.00;;;14.70;1.00;;;;;;4974768;28;20914;-68
2022/09/12 08:02:52;;;;;;;62.70;35.50;;;14.60;1.00;;;;;;4974858;28;20685;-68
2022/09/12 08:05:19;;;;;;;60.13;33.70;;;14.80;1.00;;;;;;4974966;28;20533;-68
2022/09/12 08:07:45;;;;;;;53.13;29.43;;;14.90;1.00;;;;;;4974647;28;20416;-68
2022/09/12 08:10:11;;;;;;;50.27;24.20;;;15.00;1.00;;;;;;4974842;28;20405;-68
2022/09/12 08:12:37;;;;;;;33.17;22.20;;;14.80;1.00;;;;;;4974861;28;20192;-68
2022/09/12 08:15:03;;;;;;;35.10;21.77;;;15.00;1.00;;;;;;4974775;28;20978;-68
2022/09/12 08:17:29;;;;;;;33.17;18.80;;;15.00;1.00;;;;;;4974742;28;20606;-68
2022/09/12 08:19:55;;;;;;;14.87;11.90;;;15.00;1.00;;;;;;4974400;28;20413;-68
2022/09/12 08:22:21;;;;;;;16.03;12.60;;;14.60;1.00;;;;;;4974583;28;20201;-68
2022/09/12 08:24:48;;;;;;;19.80;11.60;;;14.80;1.00;;;;;;4974664;28;20901;-68
2022/09/12 08:27:14;;;;;;;28.87;11.17;;;14.90;1.00;;;;;;4974572;28;20416;-67
2022/09/12 08:29:40;;;;;;;15.37;11.70;;;15.20;1.00;;;;;;4974368;28;20408;-67
2022/09/12 08:32:06;;;;;;;15.70;10.80;;;15.50;99.90;;;;;;4974536;28;20492;-67
2022/09/12 08:34:31;;;;;;;28.83;12.60;;;15.50;99.90;;;;;;4973034;28;20409;-67
2022/09/12 08:36:57;;;;;;;45.10;13.60;;;16.00;99.90;;;;;;4974386;28;20197;-67
2022/09/12 08:39:26;;;;;;;21.53;10.30;;;16.80;1.00;;;;;;4973441;28;20177;-67
2022/09/12 08:42:21;;;;;;;27.40;10.90;;;17.20;1.00;;;;;;4974392;28;20240;-67
2022/09/12 08:45:28;;;;;;;15.83;14.43;;;17.50;99.90;;;;;;4974122;28;20440;-67
2022/09/12 08:47:55;;;;;;;13.60;11.37;;;17.80;1.00;;;;;;4952339;29;20413;-66
2022/09/12 08:50:21;;;;;;;35.10;14.77;;;17.90;1.00;;;;;;4969551;28;20925;-67
2022/09/12 08:53:01;;;;;;;15.93;14.27;;;17.80;1.00;;;;;;4974008;28;20425;-67
2022/09/12 08:55:32;;;;;;;21.23;18.20;;;18.30;99.90;;;;;;4974129;28;21091;-67
2022/09/12 08:58:19;;;;;;;14.20;10.07;;;18.10;57.00;;;;;;4974140;28;20902;-68
2022/09/12 09:00:52;;;;;;;16.20;12.57;;;18.10;99.90;;;;;;4973751;28;20447;-67
2022/09/12 09:03:42;;;;;;;53.00;34.43;;;18.50;1.00;;;;;;4974037;28;20401;-68
2022/09/12 09:06:35;;;;;;;54.03;29.60;;;18.20;1.00;;;;;;4973867;28;20499;-67
2022/09/12 09:09:58;;;;;;;15.13;13.20;;;18.10;83.90;;;;;;4973698;28;20792;-67
2022/09/12 09:12:23;;;;;;;29.67;10.93;;;17.80;1.00;;;;;;4952234;29;20470;-68
2022/09/12 09:15:33;;;;;;;18.23;10.33;;;17.90;99.90;;;;;;4951986;29;20767;-68
2022/09/12 09:18:05;;;;;;;28.43;9.50;;;18.10;67.20;;;;;;4924205;28;20256;-67
2022/09/12 09:20:55;;;;;;;10.30;9.20;;;18.50;1.00;;;;;;4973765;28;20408;-67
2022/09/12 09:23:29;;;;;;;12.03;8.53;;;18.30;1.00;;;;;;4973649;28;20416;-68
2022/09/12 09:26:04;;;;;;;15.03;8.40;;;18.20;1.00;;;;;;4973583;28;20924;-68
2022/09/12 09:28:40;;;;;;;8.57;7.77;;;18.00;1.00;;;;;;4973261;28;20488;-67
2022/09/12 09:31:15;;;;;;;11.20;8.70;;;18.40;1.00;;;;;;4973665;28;20409;-68
2022/09/12 09:33:41;;;;;;;8.13;7.40;;;18.30;1.00;;;;;;4973886;28;20458;-67
2022/09/12 09:36:18;;;;;;;8.30;7.60;;;18.00;65.30;;;;;;4973454;28;20551;-68
2022/09/12 09:39:03;;;;;;;8.47;7.60;;;17.90;1.00;;;;;;4973071;28;20405;-67
2022/09/12 09:41:44;;;;;;;6.90;6.20;;;18.10;1.00;;;;;;4973156;28;20536;-67
2022/09/12 09:44:10;;;;;;;7.53;6.83;;;18.30;1.00;;;;;;4975285;28;20409;-67
2022/09/12 09:46:36;;;;;;;6.43;5.83;;;18.70;99.90;;;;;;4977146;28;20410;-68
2022/09/12 09:49:02;;;;;;;9.40;6.33;;;19.10;1.00;;;;;;4976651;28;20408;-68
2022/09/12 09:51:36;;;;;;;15.50;7.87;;;19.60;1.00;;;;;;4974532;28;20189;-67
2022/09/12 09:54:11;;;;;;;23.97;7.67;;;19.70;99.90;;;;;;4972944;28;20453;-67
2022/09/12 09:56:41;;;;;;;5.47;4.90;;;19.50;94.60;;;;;;4972901;28;20456;-67
2022/09/12 09:59:26;;;;;;;17.07;6.90;;;19.60;99.90;;;;;;4972620;28;20397;-67
2022/09/12 10:02:18;;;;;;;9.60;8.40;;;20.00;99.90;;;;;;4972779;28;20417;-67
2022/09/12 10:04:54;;;;;;;7.20;6.50;;;19.90;94.20;;;;;;4972627;28;20401;-67
2022/09/12 10:07:21;;;;;;;26.23;8.63;;;19.80;95.10;;;;;;4972551;28;20748;-67
2022/09/12 10:10:13;;;;;;;8.90;8.03;;;20.10;31.60;;;;;;4972643;28;20462;-67
2022/09/12 10:12:39;;;;;;;11.63;7.20;;;20.30;1.00;;;;;;4972434;28;20944;-67
2022/09/12 10:15:25;;;;;;;10.83;9.73;;;20.50;1.00;;;;;;4972518;28;20820;-68
2022/09/12 10:17:51;;;;;;;11.47;8.97;;;20.20;1.00;;;;;;4972396;28;20483;-67
2022/09/12 10:20:28;;;;;;;5.03;4.53;;;20.00;1.00;;;;;;4972501;28;20493;-67
2022/09/12 10:22:54;;;;;;;7.13;6.50;;;19.80;1.00;;;;;;4972361;28;20452;-67
2022/09/12 10:25:24;;;;;;;9.50;5.30;;;19.90;1.00;;;;;;4972453;28;20452;-67
2022/09/12 10:27:58;;;;;;;9.70;5.90;;;20.00;1.00;;;;;;4972271;28;20726;-66
2022/09/12 10:30:27;;;;;;;7.53;4.23;;;20.10;1.00;;;;;;4972271;28;20428;-67
2022/09/12 10:33:03;;;;;;;12.10;7.43;;;20.10;1.00;;;;;;4972163;28;20447;-67
2022/09/12 10:35:40;;;;;;;15.37;5.83;;;20.30;1.00;;;;;;4972950;28;20820;-67
2022/09/12 10:38:23;;;;;;;14.57;5.93;;;20.30;1.00;;;;;;4972061;28;20448;-67
2022/09/12 10:41:02;;;;;;;60.70;10.83;;;20.50;1.00;;;;;;4970887;28;20417;-67
2022/09/12 10:43:37;;;;;;;9.83;5.43;;;21.10;1.00;;;;;;4972408;28;20825;-67
2022/09/12 10:46:14;;;;;;;5.47;4.70;;;21.10;1.00;;;;;;4972155;28;20447;-67
2022/09/12 10:48:41;;;;;;;8.20;4.50;;;20.90;1.00;;;;;;4972191;28;20423;-67
2022/09/12 10:51:23;;;;;;;5.40;4.97;;;21.20;1.00;;;;;;4972701;28;22045;-68
2022/09/12 10:53:50;;;;;;;8.07;5.90;;;21.20;1.00;;;;;;4974872;28;20421;-68
2022/09/12 10:56:19;;;;;;;18.07;6.90;;;21.40;1.00;;;;;;4977813;28;20452;-68
2022/09/12 10:59:00;;;;;;;5.40;4.80;;;21.50;1.00;;;;;;4976612;28;20480;-69
2022/09/12 11:01:31;;;;;;;10.90;6.43;;;21.70;1.00;;;;;;4978932;28;20500;-69
2022/09/12 11:04:15;;;;;;;11.17;7.00;;;21.50;1.00;;;;;;4984898;28;20411;-69
2022/09/12 11:07:08;;;;;;;11.20;5.20;;;21.50;1.00;;;;;;4984715;28;20838;-68
2022/09/12 11:09:52;;;;;;;5.20;4.50;;;21.60;1.00;;;;;;4982131;28;20423;-68
2022/09/12 11:12:27;;;;;;;9.70;5.03;;;21.60;99.90;;;;;;4978419;28;20432;-68
2022/09/12 11:15:22;;;;;;;6.63;6.00;;;21.30;99.90;;;;;;4978740;28;20470;-68
2022/09/12 11:18:45;;;;;;;4.67;4.10;;;20.80;1.00;;;;;;4925147;28;20434;-68
2022/09/12 11:21:31;;;;;;;6.93;4.60;;;21.30;1.00;;;;;;4918168;29;20443;-68
2022/09/12 11:24:03;;;;;;;10.40;4.60;;;21.70;99.90;;;;;;4902027;29;20842;-68
2022/09/12 11:26:52;;;;;;;8.07;3.87;;;22.00;99.90;;;;;;4917041;29;20450;-68
2022/09/12 11:29:20;;;;;;;4.90;3.67;;;22.00;99.90;;;;;;4918517;29;20846;-64
2022/09/12 11:31:46;;;;;;;8.90;4.97;;;21.80;99.90;;;;;;4917107;29;20459;-64
2022/09/12 11:34:22;;;;;;;6.07;4.93;;;21.50;99.90;;;;;;4917786;29;20447;-63
2022/09/12 11:37:03;;;;;;;7.03;4.67;;;21.70;99.90;;;;;;4918159;29;20198;-63
2022/09/12 11:39:39;;;;;;;5.27;4.70;;;21.70;99.90;;;;;;4918054;29;20411;-63
2022/09/12 11:42:11;;;;;;;10.77;5.20;;;21.50;99.90;;;;;;4917350;29;20562;-63
2022/09/12 11:44:41;;;;;;;10.90;5.13;;;21.50;99.90;;;;;;4917880;29;20420;-64
2022/09/12 11:47:12;;;;;;;12.83;5.80;;;21.70;99.90;;;;;;4917937;29;20426;-63
2022/09/12 11:49:48;;;;;;;8.93;5.10;;;21.50;99.90;;;;;;4917956;29;20446;-63
2022/09/12 11:52:24;;;;;;;11.87;5.70;;;21.40;99.90;;;;;;4961411;28;21055;-64
2022/09/12 11:55:09;;;;;;;41.77;9.47;;;21.70;99.90;;;;;;4977672;28;20503;-64
2022/09/12 11:57:57;;;;;;;8.17;6.83;;;22.10;99.90;;;;;;4977541;28;20504;-63
2022/09/12 12:00:36;;;;;;;13.47;6.93;;;22.20;99.90;;;;;;4977479;28;20495;-65
2022/09/12 12:03:05;;;;;;;10.80;5.80;;;22.30;99.90;;;;;;4973960;28;20448;-64
2022/09/12 12:05:50;;;;;;;10.83;6.90;;;22.10;99.90;;;;;;4976777;28;20526;-65
2022/09/12 12:08:17;;;;;;;18.10;5.73;;;21.70;99.90;;;;;;4977231;28;20448;-64
2022/09/12 12:10:59;;;;;;;11.03;6.27;;;21.80;99.90;;;;;;4976584;28;20488;-64
2022/09/12 12:13:48;;;;;;;7.93;5.53;;;21.90;99.90;;;;;;4971918;28;21006;-63
2022/09/12 12:16:14;;;;;;;7.53;4.40;;;21.90;99.90;;;;;;4974725;28;20498;-65
2022/09/12 12:18:42;;;;;;;16.17;5.10;;;22.10;99.90;;;;;;4974361;28;20569;-64
2022/09/12 12:21:48;;;;;;;16.70;6.10;;;22.00;99.90;;;;;;4971408;28;20300;-65
2022/09/12 12:24:24;;;;;;;8.43;5.90;;;22.20;99.90;;;;;;4970607;28;20845;-65
2022/09/12 12:26:53;;;;;;;7.33;5.47;;;22.30;99.90;;;;;;4974994;28;20960;-62
2022/09/12 12:29:18;;;;;;;9.60;5.23;;;22.30;99.90;;;;;;4974236;28;20409;-60
2022/09/12 12:32:00;;;;;;;9.00;5.50;;;22.20;99.90;;;;;;4970938;28;20547;-63
2022/09/12 12:34:45;;;;;;;4.37;3.90;;;22.20;99.90;;;;;;4971802;28;20344;-67
2022/09/12 12:37:20;;;;;;;5.30;4.77;;;22.10;99.90;;;;;;4971848;28;20469;-67
2022/09/12 12:39:49;;;;;;;5.27;4.60;;;21.80;99.90;;;;;;4968078;28;20409;-67
2022/09/12 12:42:33;;;;;;;5.40;4.90;;;21.70;99.90;;;;;;4967378;28;20446;-67
2022/09/12 12:45:03;;;;;;;4.30;3.90;;;21.70;99.90;;;;;;4971099;28;20444;-67
2022/09/12 12:47:36;;;;;;;5.20;3.50;;;21.70;99.90;;;;;;4974048;28;20463;-67
2022/09/12 12:50:19;;;;;;;10.00;4.50;;;21.70;99.90;;;;;;4973996;28;20435;-67
2022/09/12 12:52:53;;;;;;;7.23;3.70;;;21.90;99.90;;;;;;4973981;28;20569;-67
2022/09/12 12:55:32;;;;;;;7.57;4.57;;;22.00;99.90;;;;;;4973964;28;20550;-67
2022/09/12 12:58:04;;;;;;;8.67;4.13;;;22.10;99.90;;;;;;4973442;28;20432;-68
2022/09/12 13:00:35;;;;;;;8.00;3.33;;;22.20;99.90;;;;;;4973987;28;21065;-69
2022/09/12 13:03:07;;;;;;;4.77;3.27;;;22.10;99.90;;;;;;4973833;28;20918;-69
2022/09/12 13:05:58;;;;;;;6.00;3.50;;;21.80;99.90;;;;;;4973999;28;20405;-69
2022/09/12 13:08:30;;;;;;;4.13;3.23;;;21.90;99.90;;;;;;4973786;28;21220;-69